sensor_id;sensor_type;location;lat;lon;timestamp;P1;durP1;ratioP1;P2;durP2;ratioP2
6209;SDS011;3138;52.550;13.148;2023-04-16T00:01:49;61.70;;;35.53;;
6209;SDS011;3138;52.550;13.148;2023-04-16T00:04:16;56.50;;;34.10;;
6209;SDS011;3138;52.550;13.148;2023-04-16T00:06:43;59.37;;;35.30;;
6209;SDS011;3138;52.550;13.148;2023-04-16T00:09:11;52.03;;;33.40;;
6209;SDS011;3138;52.550;13.148;2023-04-16T00:11:38;58.07;;;33.90;;
6209;SDS011;3138;52.550;13.148;2023-04-16T00:14:04;52.83;;;34.40;;
6209;SDS011;3138;52.550;13.148;2023-04-16T00:16:31;56.47;;;36.53;;
6209;SDS011;3138;52.550;13.148;2023-04-16T00:18:58;53.03;;;34.70;;
6209;SDS011;3138;52.550;13.148;2023-04-16T00:21:25;67.43;;;34.80;;
6209;SDS011;3138;52.550;13.148;2023-04-16T00:23:52;52.17;;;33.80;;
6209;SDS011;3138;52.550;13.148;2023-04-16T00:26:20;55.17;;;34.80;;
6209;SDS011;3138;52.550;13.148;2023-04-16T00:28:47;46.13;;;32.73;;
6209;SDS011;3138;52.550;13.148;2023-04-16T00:31:14;53.50;;;33.33;;
6209;SDS011;3138;52.550;13.148;2023-04-16T00:33:41;54.63;;;33.70;;
6209;SDS011;3138;52.550;13.148;2023-04-16T00:36:08;57.97;;;36.17;;
6209;SDS011;3138;52.550;13.148;2023-04-16T00:38:35;82.33;;;33.60;;
6209;SDS011;3138;52.550;13.148;2023-04-16T00:41:02;54.80;;;34.63;;
6209;SDS011;3138;52.550;13.148;2023-04-16T00:43:30;52.33;;;34.70;;
6209;SDS011;3138;52.550;13.148;2023-04-16T00:45:57;53.27;;;36.10;;
6209;SDS011;3138;52.550;13.148;2023-04-16T00:48:24;58.63;;;36.37;;
6209;SDS011;3138;52.550;13.148;2023-04-16T00:50:52;51.40;;;33.80;;
6209;SDS011;3138;52.550;13.148;2023-04-16T00:53:20;58.43;;;35.13;;
6209;SDS011;3138;52.550;13.148;2023-04-16T00:55:47;45.53;;;33.07;;
6209;SDS011;3138;52.550;13.148;2023-04-16T00:58:14;56.67;;;34.70;;
6209;SDS011;3138;52.550;13.148;2023-04-16T01:00:43;67.60;;;34.53;;
6209;SDS011;3138;52.550;13.148;2023-04-16T01:03:10;56.43;;;33.97;;
6209;SDS011;3138;52.550;13.148;2023-04-16T01:05:37;60.10;;;34.90;;
6209;SDS011;3138;52.550;13.148;2023-04-16T01:08:04;56.00;;;31.87;;
6209;SDS011;3138;52.550;13.148;2023-04-16T01:10:31;58.90;;;35.73;;
6209;SDS011;3138;52.550;13.148;2023-04-16T01:12:58;61.80;;;34.53;;
6209;SDS011;3138;52.550;13.148;2023-04-16T01:15:25;52.53;;;33.23;;
6209;SDS011;3138;52.550;13.148;2023-04-16T01:17:53;54.63;;;30.77;;
6209;SDS011;3138;52.550;13.148;2023-04-16T01:20:20;52.00;;;31.63;;
6209;SDS011;3138;52.550;13.148;2023-04-16T01:22:48;54.07;;;30.80;;
6209;SDS011;3138;52.550;13.148;2023-04-16T01:25:15;49.40;;;32.67;;
6209;SDS011;3138;52.550;13.148;2023-04-16T01:27:42;50.20;;;31.87;;
6209;SDS011;3138;52.550;13.148;2023-04-16T01:30:12;57.33;;;34.47;;
6209;SDS011;3138;52.550;13.148;2023-04-16T01:32:39;57.90;;;33.23;;
6209;SDS011;3138;52.550;13.148;2023-04-16T01:35:06;57.63;;;35.20;;
6209;SDS011;3138;52.550;13.148;2023-04-16T01:37:33;54.13;;;33.77;;
6209;SDS011;3138;52.550;13.148;2023-04-16T01:40:01;63.70;;;32.80;;
6209;SDS011;3138;52.550;13.148;2023-04-16T01:42:28;60.63;;;35.20;;
6209;SDS011;3138;52.550;13.148;2023-04-16T01:44:55;63.97;;;32.90;;
6209;SDS011;3138;52.550;13.148;2023-04-16T01:47:22;53.43;;;33.87;;
6209;SDS011;3138;52.550;13.148;2023-04-16T01:49:48;54.43;;;34.20;;
6209;SDS011;3138;52.550;13.148;2023-04-16T01:52:15;59.03;;;35.40;;
6209;SDS011;3138;52.550;13.148;2023-04-16T01:54:42;55.93;;;35.53;;
6209;SDS011;3138;52.550;13.148;2023-04-16T01:57:10;59.70;;;35.80;;
6209;SDS011;3138;52.550;13.148;2023-04-16T01:59:37;70.67;;;35.77;;
6209;SDS011;3138;52.550;13.148;2023-04-16T02:02:06;62.33;;;35.80;;
6209;SDS011;3138;52.550;13.148;2023-04-16T02:04:35;60.13;;;37.80;;
6209;SDS011;3138;52.550;13.148;2023-04-16T02:07:02;68.27;;;39.10;;
6209;SDS011;3138;52.550;13.148;2023-04-16T02:09:29;71.00;;;36.60;;
6209;SDS011;3138;52.550;13.148;2023-04-16T02:11:57;66.50;;;36.30;;
6209;SDS011;3138;52.550;13.148;2023-04-16T02:14:25;68.53;;;36.37;;
6209;SDS011;3138;52.550;13.148;2023-04-16T02:16:52;75.63;;;37.57;;
6209;SDS011;3138;52.550;13.148;2023-04-16T02:19:18;64.77;;;38.33;;
6209;SDS011;3138;52.550;13.148;2023-04-16T02:21:45;82.87;;;37.20;;
6209;SDS011;3138;52.550;13.148;2023-04-16T02:24:13;80.97;;;36.77;;
6209;SDS011;3138;52.550;13.148;2023-04-16T02:26:40;69.53;;;38.63;;
6209;SDS011;3138;52.550;13.148;2023-04-16T02:29:06;67.50;;;40.70;;
6209;SDS011;3138;52.550;13.148;2023-04-16T02:31:35;74.53;;;38.20;;
6209;SDS011;3138;52.550;13.148;2023-04-16T02:34:02;81.43;;;40.73;;
6209;SDS011;3138;52.550;13.148;2023-04-16T02:36:29;77.07;;;38.90;;
6209;SDS011;3138;52.550;13.148;2023-04-16T02:38:56;81.53;;;39.50;;
6209;SDS011;3138;52.550;13.148;2023-04-16T02:41:23;92.37;;;41.87;;
6209;SDS011;3138;52.550;13.148;2023-04-16T02:43:50;72.93;;;38.90;;
6209;SDS011;3138;52.550;13.148;2023-04-16T02:46:17;74.70;;;39.83;;
6209;SDS011;3138;52.550;13.148;2023-04-16T02:48:45;74.10;;;39.40;;
6209;SDS011;3138;52.550;13.148;2023-04-16T02:51:12;71.37;;;37.17;;
6209;SDS011;3138;52.550;13.148;2023-04-16T02:53:39;73.17;;;41.53;;
6209;SDS011;3138;52.550;13.148;2023-04-16T02:56:09;75.53;;;39.50;;
6209;SDS011;3138;52.550;13.148;2023-04-16T02:58:37;69.90;;;39.97;;
6209;SDS011;3138;52.550;13.148;2023-04-16T03:01:04;76.70;;;40.93;;
6209;SDS011;3138;52.550;13.148;2023-04-16T03:03:30;66.00;;;41.20;;
6209;SDS011;3138;52.550;13.148;2023-04-16T03:05:59;69.97;;;40.80;;
6209;SDS011;3138;52.550;13.148;2023-04-16T03:08:25;80.20;;;38.77;;
6209;SDS011;3138;52.550;13.148;2023-04-16T03:10:52;84.67;;;40.80;;
6209;SDS011;3138;52.550;13.148;2023-04-16T03:13:19;73.13;;;39.80;;
6209;SDS011;3138;52.550;13.148;2023-04-16T03:15:49;68.50;;;39.43;;
6209;SDS011;3138;52.550;13.148;2023-04-16T03:18:16;72.63;;;39.33;;
6209;SDS011;3138;52.550;13.148;2023-04-16T03:20:42;67.83;;;39.87;;
6209;SDS011;3138;52.550;13.148;2023-04-16T03:23:11;71.33;;;40.83;;
6209;SDS011;3138;52.550;13.148;2023-04-16T03:25:38;71.07;;;40.10;;
6209;SDS011;3138;52.550;13.148;2023-04-16T03:28:05;68.53;;;39.73;;
6209;SDS011;3138;52.550;13.148;2023-04-16T03:30:32;71.10;;;38.07;;
6209;SDS011;3138;52.550;13.148;2023-04-16T03:32:59;82.47;;;40.40;;
6209;SDS011;3138;52.550;13.148;2023-04-16T03:35:26;86.70;;;41.87;;
6209;SDS011;3138;52.550;13.148;2023-04-16T03:37:53;78.23;;;41.10;;
6209;SDS011;3138;52.550;13.148;2023-04-16T03:40:21;77.40;;;40.63;;
6209;SDS011;3138;52.550;13.148;2023-04-16T03:42:48;58.87;;;37.70;;
6209;SDS011;3138;52.550;13.148;2023-04-16T03:45:14;73.57;;;41.23;;
6209;SDS011;3138;52.550;13.148;2023-04-16T03:47:41;79.13;;;40.87;;
6209;SDS011;3138;52.550;13.148;2023-04-16T03:50:08;70.03;;;37.47;;
6209;SDS011;3138;52.550;13.148;2023-04-16T03:52:37;70.77;;;37.87;;
6209;SDS011;3138;52.550;13.148;2023-04-16T03:55:05;84.73;;;42.10;;
6209;SDS011;3138;52.550;13.148;2023-04-16T03:57:34;66.60;;;37.53;;
6209;SDS011;3138;52.550;13.148;2023-04-16T04:00:01;78.13;;;40.87;;
6209;SDS011;3138;52.550;13.148;2023-04-16T04:02:28;67.83;;;39.87;;
6209;SDS011;3138;52.550;13.148;2023-04-16T04:04:55;92.43;;;43.00;;
6209;SDS011;3138;52.550;13.148;2023-04-16T04:07:21;88.20;;;42.60;;
6209;SDS011;3138;52.550;13.148;2023-04-16T04:09:48;78.20;;;42.10;;
6209;SDS011;3138;52.550;13.148;2023-04-16T04:12:15;72.83;;;41.60;;
6209;SDS011;3138;52.550;13.148;2023-04-16T04:14:43;90.47;;;43.63;;
6209;SDS011;3138;52.550;13.148;2023-04-16T04:17:10;76.53;;;43.80;;
6209;SDS011;3138;52.550;13.148;2023-04-16T04:19:37;88.77;;;45.87;;
6209;SDS011;3138;52.550;13.148;2023-04-16T04:22:04;78.27;;;41.13;;
6209;SDS011;3138;52.550;13.148;2023-04-16T04:24:30;70.20;;;42.87;;
6209;SDS011;3138;52.550;13.148;2023-04-16T04:26:57;74.00;;;42.47;;
6209;SDS011;3138;52.550;13.148;2023-04-16T04:29:25;70.73;;;40.37;;
6209;SDS011;3138;52.550;13.148;2023-04-16T04:31:53;76.57;;;43.40;;
6209;SDS011;3138;52.550;13.148;2023-04-16T04:34:20;76.33;;;42.10;;
6209;SDS011;3138;52.550;13.148;2023-04-16T04:36:47;77.67;;;42.70;;
6209;SDS011;3138;52.550;13.148;2023-04-16T04:39:14;73.03;;;40.93;;
6209;SDS011;3138;52.550;13.148;2023-04-16T04:41:41;95.43;;;41.30;;
6209;SDS011;3138;52.550;13.148;2023-04-16T04:44:07;78.33;;;39.10;;
6209;SDS011;3138;52.550;13.148;2023-04-16T04:46:34;81.90;;;42.90;;
6209;SDS011;3138;52.550;13.148;2023-04-16T04:49:02;67.77;;;38.40;;
6209;SDS011;3138;52.550;13.148;2023-04-16T04:51:29;81.37;;;39.27;;
6209;SDS011;3138;52.550;13.148;2023-04-16T04:53:56;78.07;;;40.90;;
6209;SDS011;3138;52.550;13.148;2023-04-16T04:56:23;70.97;;;41.07;;
6209;SDS011;3138;52.550;13.148;2023-04-16T04:58:51;81.33;;;39.97;;
6209;SDS011;3138;52.550;13.148;2023-04-16T05:01:17;71.77;;;38.17;;
6209;SDS011;3138;52.550;13.148;2023-04-16T05:03:44;72.70;;;39.43;;
6209;SDS011;3138;52.550;13.148;2023-04-16T05:06:12;79.43;;;41.50;;
6209;SDS011;3138;52.550;13.148;2023-04-16T05:08:39;73.30;;;39.43;;
6209;SDS011;3138;52.550;13.148;2023-04-16T05:11:06;69.27;;;41.47;;
6209;SDS011;3138;52.550;13.148;2023-04-16T05:13:33;69.03;;;39.63;;
6209;SDS011;3138;52.550;13.148;2023-04-16T05:16:00;80.97;;;40.87;;
6209;SDS011;3138;52.550;13.148;2023-04-16T05:18:26;69.43;;;39.63;;
6209;SDS011;3138;52.550;13.148;2023-04-16T05:20:53;71.57;;;41.07;;
6209;SDS011;3138;52.550;13.148;2023-04-16T05:23:22;81.30;;;40.93;;
6209;SDS011;3138;52.550;13.148;2023-04-16T05:25:49;72.07;;;39.23;;
6209;SDS011;3138;52.550;13.148;2023-04-16T05:28:16;68.23;;;39.70;;
6209;SDS011;3138;52.550;13.148;2023-04-16T05:30:42;79.03;;;40.00;;
6209;SDS011;3138;52.550;13.148;2023-04-16T05:33:09;70.80;;;40.17;;
6209;SDS011;3138;52.550;13.148;2023-04-16T05:35:36;70.30;;;37.20;;
6209;SDS011;3138;52.550;13.148;2023-04-16T05:38:03;73.73;;;38.00;;
6209;SDS011;3138;52.550;13.148;2023-04-16T05:40:31;71.23;;;37.03;;
6209;SDS011;3138;52.550;13.148;2023-04-16T05:42:58;67.30;;;38.50;;
6209;SDS011;3138;52.550;13.148;2023-04-16T05:45:25;64.40;;;39.43;;
6209;SDS011;3138;52.550;13.148;2023-04-16T05:47:52;64.73;;;39.27;;
6209;SDS011;3138;52.550;13.148;2023-04-16T05:50:18;76.13;;;40.20;;
6209;SDS011;3138;52.550;13.148;2023-04-16T05:52:45;65.60;;;38.50;;
6209;SDS011;3138;52.550;13.148;2023-04-16T05:55:12;69.40;;;38.43;;
6209;SDS011;3138;52.550;13.148;2023-04-16T05:57:40;67.83;;;38.17;;
6209;SDS011;3138;52.550;13.148;2023-04-16T06:00:07;85.67;;;37.83;;
6209;SDS011;3138;52.550;13.148;2023-04-16T06:02:34;64.00;;;38.47;;
6209;SDS011;3138;52.550;13.148;2023-04-16T06:05:01;60.77;;;34.87;;
6209;SDS011;3138;52.550;13.148;2023-04-16T06:07:28;59.77;;;36.70;;
6209;SDS011;3138;52.550;13.148;2023-04-16T06:09:55;68.03;;;37.80;;
6209;SDS011;3138;52.550;13.148;2023-04-16T06:12:22;72.93;;;38.67;;
6209;SDS011;3138;52.550;13.148;2023-04-16T06:14:51;59.00;;;36.70;;
6209;SDS011;3138;52.550;13.148;2023-04-16T06:17:17;70.47;;;39.87;;
6209;SDS011;3138;52.550;13.148;2023-04-16T06:19:45;66.37;;;38.50;;
6209;SDS011;3138;52.550;13.148;2023-04-16T06:22:12;71.50;;;39.50;;
6209;SDS011;3138;52.550;13.148;2023-04-16T06:24:39;69.43;;;36.53;;
6209;SDS011;3138;52.550;13.148;2023-04-16T06:27:05;65.53;;;37.10;;
6209;SDS011;3138;52.550;13.148;2023-04-16T06:29:32;62.97;;;37.40;;
6209;SDS011;3138;52.550;13.148;2023-04-16T06:32:01;64.47;;;35.87;;
6209;SDS011;3138;52.550;13.148;2023-04-16T06:34:28;63.03;;;36.10;;
6209;SDS011;3138;52.550;13.148;2023-04-16T06:36:56;54.27;;;35.30;;
6209;SDS011;3138;52.550;13.148;2023-04-16T06:39:23;66.40;;;34.90;;
6209;SDS011;3138;52.550;13.148;2023-04-16T06:41:50;65.77;;;36.37;;
6209;SDS011;3138;52.550;13.148;2023-04-16T06:44:17;65.20;;;36.37;;
6209;SDS011;3138;52.550;13.148;2023-04-16T06:46:44;53.13;;;33.93;;
6209;SDS011;3138;52.550;13.148;2023-04-16T06:49:12;58.93;;;33.30;;
6209;SDS011;3138;52.550;13.148;2023-04-16T06:51:39;62.93;;;35.67;;
6209;SDS011;3138;52.550;13.148;2023-04-16T06:54:06;65.20;;;35.57;;
6209;SDS011;3138;52.550;13.148;2023-04-16T06:56:33;55.30;;;34.30;;
6209;SDS011;3138;52.550;13.148;2023-04-16T06:59:01;57.17;;;34.30;;
6209;SDS011;3138;52.550;13.148;2023-04-16T07:01:28;67.83;;;35.87;;
6209;SDS011;3138;52.550;13.148;2023-04-16T07:03:55;64.83;;;35.63;;
6209;SDS011;3138;52.550;13.148;2023-04-16T07:06:23;61.33;;;36.30;;
6209;SDS011;3138;52.550;13.148;2023-04-16T07:08:51;61.63;;;33.67;;
6209;SDS011;3138;52.550;13.148;2023-04-16T07:11:18;61.10;;;34.30;;
6209;SDS011;3138;52.550;13.148;2023-04-16T07:13:45;54.23;;;34.57;;
6209;SDS011;3138;52.550;13.148;2023-04-16T07:16:11;52.27;;;34.20;;
6209;SDS011;3138;52.550;13.148;2023-04-16T07:18:38;60.73;;;34.73;;
6209;SDS011;3138;52.550;13.148;2023-04-16T07:21:05;62.87;;;35.60;;
6209;SDS011;3138;52.550;13.148;2023-04-16T07:23:33;56.87;;;33.43;;
6209;SDS011;3138;52.550;13.148;2023-04-16T07:26:00;55.27;;;33.83;;
6209;SDS011;3138;52.550;13.148;2023-04-16T07:28:27;66.23;;;36.30;;
6209;SDS011;3138;52.550;13.148;2023-04-16T07:30:54;56.17;;;33.10;;
6209;SDS011;3138;52.550;13.148;2023-04-16T07:33:20;54.33;;;32.73;;
6209;SDS011;3138;52.550;13.148;2023-04-16T07:35:47;73.37;;;35.80;;
6209;SDS011;3138;52.550;13.148;2023-04-16T07:38:15;64.87;;;32.70;;
6209;SDS011;3138;52.550;13.148;2023-04-16T07:40:43;64.47;;;34.30;;
6209;SDS011;3138;52.550;13.148;2023-04-16T07:43:10;59.00;;;35.97;;
6209;SDS011;3138;52.550;13.148;2023-04-16T07:45:39;55.27;;;33.30;;
6209;SDS011;3138;52.550;13.148;2023-04-16T07:48:06;72.73;;;35.87;;
6209;SDS011;3138;52.550;13.148;2023-04-16T07:50:33;60.80;;;34.33;;
6209;SDS011;3138;52.550;13.148;2023-04-16T07:52:59;50.77;;;32.83;;
6209;SDS011;3138;52.550;13.148;2023-04-16T07:55:26;112.70;;;32.07;;
6209;SDS011;3138;52.550;13.148;2023-04-16T07:57:54;64.27;;;35.67;;
6209;SDS011;3138;52.550;13.148;2023-04-16T08:00:21;54.10;;;33.00;;
6209;SDS011;3138;52.550;13.148;2023-04-16T08:02:48;56.93;;;34.93;;
6209;SDS011;3138;52.550;13.148;2023-04-16T08:05:15;63.13;;;33.50;;
6209;SDS011;3138;52.550;13.148;2023-04-16T08:07:42;57.67;;;31.00;;
6209;SDS011;3138;52.550;13.148;2023-04-16T08:10:09;50.27;;;29.80;;
6209;SDS011;3138;52.550;13.148;2023-04-16T08:12:36;49.23;;;27.50;;
6209;SDS011;3138;52.550;13.148;2023-04-16T08:15:05;52.87;;;29.70;;
6209;SDS011;3138;52.550;13.148;2023-04-16T08:17:33;44.67;;;28.30;;
6209;SDS011;3138;52.550;13.148;2023-04-16T08:20:01;45.63;;;29.20;;
6209;SDS011;3138;52.550;13.148;2023-04-16T08:22:28;48.60;;;29.17;;
6209;SDS011;3138;52.550;13.148;2023-04-16T08:24:55;49.00;;;30.43;;
6209;SDS011;3138;52.550;13.148;2023-04-16T08:27:22;49.90;;;29.43;;
6209;SDS011;3138;52.550;13.148;2023-04-16T08:29:49;48.57;;;31.63;;
6209;SDS011;3138;52.550;13.148;2023-04-16T08:32:17;49.30;;;30.80;;
6209;SDS011;3138;52.550;13.148;2023-04-16T08:34:44;50.27;;;30.67;;
6209;SDS011;3138;52.550;13.148;2023-04-16T08:37:11;54.47;;;32.73;;
6209;SDS011;3138;52.550;13.148;2023-04-16T08:39:38;51.93;;;30.77;;
6209;SDS011;3138;52.550;13.148;2023-04-16T08:42:05;48.77;;;32.00;;
6209;SDS011;3138;52.550;13.148;2023-04-16T08:44:39;53.23;;;31.77;;
6209;SDS011;3138;52.550;13.148;2023-04-16T08:47:11;51.77;;;33.10;;
6209;SDS011;3138;52.550;13.148;2023-04-16T08:49:42;56.83;;;31.50;;
6209;SDS011;3138;52.550;13.148;2023-04-16T08:52:11;56.00;;;31.77;;
6209;SDS011;3138;52.550;13.148;2023-04-16T08:54:45;56.30;;;34.17;;
6209;SDS011;3138;52.550;13.148;2023-04-16T08:57:18;68.83;;;32.90;;
6209;SDS011;3138;52.550;13.148;2023-04-16T08:59:45;55.57;;;30.37;;
6209;SDS011;3138;52.550;13.148;2023-04-16T09:02:13;47.53;;;28.87;;
6209;SDS011;3138;52.550;13.148;2023-04-16T09:04:41;49.17;;;29.87;;
6209;SDS011;3138;52.550;13.148;2023-04-16T09:07:10;45.00;;;30.57;;
6209;SDS011;3138;52.550;13.148;2023-04-16T09:09:37;61.90;;;30.77;;
6209;SDS011;3138;52.550;13.148;2023-04-16T09:12:05;49.40;;;29.50;;
6209;SDS011;3138;52.550;13.148;2023-04-16T09:14:33;38.33;;;26.03;;
6209;SDS011;3138;52.550;13.148;2023-04-16T09:17:02;51.10;;;30.47;;
6209;SDS011;3138;52.550;13.148;2023-04-16T09:19:31;45.50;;;28.60;;
6209;SDS011;3138;52.550;13.148;2023-04-16T09:21:59;40.87;;;27.03;;
6209;SDS011;3138;52.550;13.148;2023-04-16T09:24:27;45.20;;;26.10;;
6209;SDS011;3138;52.550;13.148;2023-04-16T09:26:54;41.73;;;26.90;;
6209;SDS011;3138;52.550;13.148;2023-04-16T09:29:34;41.97;;;26.23;;
6209;SDS011;3138;52.550;13.148;2023-04-16T09:32:02;42.70;;;27.67;;
6209;SDS011;3138;52.550;13.148;2023-04-16T09:34:30;38.00;;;24.40;;
6209;SDS011;3138;52.550;13.148;2023-04-16T09:39:55;42.23;;;25.77;;
6209;SDS011;3138;52.550;13.148;2023-04-16T09:42:23;42.57;;;25.50;;
6209;SDS011;3138;52.550;13.148;2023-04-16T09:44:52;37.20;;;24.40;;
6209;SDS011;3138;52.550;13.148;2023-04-16T09:47:20;42.80;;;24.03;;
6209;SDS011;3138;52.550;13.148;2023-04-16T09:49:48;40.90;;;23.70;;
6209;SDS011;3138;52.550;13.148;2023-04-16T09:52:15;38.30;;;24.43;;
6209;SDS011;3138;52.550;13.148;2023-04-16T09:54:46;37.90;;;25.07;;
6209;SDS011;3138;52.550;13.148;2023-04-16T09:57:16;40.70;;;25.27;;
6209;SDS011;3138;52.550;13.148;2023-04-16T09:59:45;35.80;;;24.30;;
6209;SDS011;3138;52.550;13.148;2023-04-16T10:02:12;43.27;;;25.83;;
6209;SDS011;3138;52.550;13.148;2023-04-16T10:04:46;33.70;;;23.37;;
6209;SDS011;3138;52.550;13.148;2023-04-16T10:07:13;39.33;;;24.53;;
6209;SDS011;3138;52.550;13.148;2023-04-16T10:09:43;32.80;;;24.97;;
6209;SDS011;3138;52.550;13.148;2023-04-16T10:12:12;37.43;;;23.83;;
6209;SDS011;3138;52.550;13.148;2023-04-16T10:14:41;33.83;;;22.50;;
6209;SDS011;3138;52.550;13.148;2023-04-16T10:17:08;34.83;;;23.60;;
6209;SDS011;3138;52.550;13.148;2023-04-16T10:19:35;36.20;;;23.20;;
6209;SDS011;3138;52.550;13.148;2023-04-16T10:22:02;34.53;;;24.13;;
6209;SDS011;3138;52.550;13.148;2023-04-16T10:24:30;34.07;;;21.87;;
6209;SDS011;3138;52.550;13.148;2023-04-16T10:26:59;39.93;;;23.30;;
6209;SDS011;3138;52.550;13.148;2023-04-16T10:29:27;33.40;;;20.93;;
6209;SDS011;3138;52.550;13.148;2023-04-16T10:31:56;32.60;;;22.00;;
6209;SDS011;3138;52.550;13.148;2023-04-16T10:34:24;31.90;;;21.60;;
6209;SDS011;3138;52.550;13.148;2023-04-16T10:36:54;40.80;;;23.07;;
6209;SDS011;3138;52.550;13.148;2023-04-16T10:39:21;31.30;;;21.70;;
6209;SDS011;3138;52.550;13.148;2023-04-16T10:41:49;26.63;;;20.60;;
6209;SDS011;3138;52.550;13.148;2023-04-16T10:44:31;28.00;;;20.37;;
6209;SDS011;3138;52.550;13.148;2023-04-16T10:46:59;33.30;;;20.80;;
6209;SDS011;3138;52.550;13.148;2023-04-16T10:49:26;29.80;;;21.20;;
6209;SDS011;3138;52.550;13.148;2023-04-16T10:51:54;28.47;;;19.77;;
6209;SDS011;3138;52.550;13.148;2023-04-16T10:54:22;32.70;;;21.57;;
6209;SDS011;3138;52.550;13.148;2023-04-16T10:56:51;28.43;;;20.00;;
6209;SDS011;3138;52.550;13.148;2023-04-16T10:59:19;32.30;;;19.97;;
6209;SDS011;3138;52.550;13.148;2023-04-16T11:01:49;26.90;;;18.30;;
6209;SDS011;3138;52.550;13.148;2023-04-16T11:04:29;32.03;;;21.30;;
6209;SDS011;3138;52.550;13.148;2023-04-16T11:07:03;25.13;;;17.53;;
6209;SDS011;3138;52.550;13.148;2023-04-16T11:09:41;27.97;;;19.10;;
6209;SDS011;3138;52.550;13.148;2023-04-16T11:12:12;29.97;;;19.10;;
6209;SDS011;3138;52.550;13.148;2023-04-16T11:14:40;28.37;;;19.87;;
6209;SDS011;3138;52.550;13.148;2023-04-16T11:17:08;30.77;;;18.70;;
6209;SDS011;3138;52.550;13.148;2023-04-16T11:19:36;26.60;;;19.07;;
6209;SDS011;3138;52.550;13.148;2023-04-16T11:22:04;26.80;;;18.33;;
6209;SDS011;3138;52.550;13.148;2023-04-16T11:24:31;27.50;;;19.60;;
6209;SDS011;3138;52.550;13.148;2023-04-16T11:26:58;30.63;;;20.53;;
6209;SDS011;3138;52.550;13.148;2023-04-16T11:29:25;21.47;;;17.20;;
6209;SDS011;3138;52.550;13.148;2023-04-16T11:31:53;39.23;;;21.30;;
6209;SDS011;3138;52.550;13.148;2023-04-16T11:34:20;28.70;;;18.53;;
6209;SDS011;3138;52.550;13.148;2023-04-16T11:36:49;33.37;;;21.40;;
6209;SDS011;3138;52.550;13.148;2023-04-16T11:39:17;30.13;;;20.30;;
6209;SDS011;3138;52.550;13.148;2023-04-16T11:41:44;26.40;;;18.87;;
6209;SDS011;3138;52.550;13.148;2023-04-16T11:44:15;30.40;;;23.23;;
6209;SDS011;3138;52.550;13.148;2023-04-16T11:46:43;25.67;;;18.73;;
6209;SDS011;3138;52.550;13.148;2023-04-16T11:49:10;26.67;;;18.60;;
6209;SDS011;3138;52.550;13.148;2023-04-16T11:51:43;34.33;;;19.60;;
6209;SDS011;3138;52.550;13.148;2023-04-16T11:54:19;28.87;;;18.73;;
6209;SDS011;3138;52.550;13.148;2023-04-16T11:56:47;24.30;;;18.00;;
6209;SDS011;3138;52.550;13.148;2023-04-16T11:59:15;22.33;;;16.23;;
6209;SDS011;3138;52.550;13.148;2023-04-16T12:01:44;33.90;;;18.23;;
6209;SDS011;3138;52.550;13.148;2023-04-16T12:04:13;32.27;;;18.20;;
6209;SDS011;3138;52.550;13.148;2023-04-16T12:06:40;24.57;;;18.47;;
6209;SDS011;3138;52.550;13.148;2023-04-16T12:09:33;21.57;;;15.70;;
6209;SDS011;3138;52.550;13.148;2023-04-16T12:12:01;23.27;;;16.03;;
6209;SDS011;3138;52.550;13.148;2023-04-16T12:14:28;22.27;;;15.77;;
6209;SDS011;3138;52.550;13.148;2023-04-16T12:16:55;20.80;;;14.77;;
6209;SDS011;3138;52.550;13.148;2023-04-16T12:19:47;23.00;;;15.40;;
6209;SDS011;3138;52.550;13.148;2023-04-16T12:22:14;17.97;;;12.87;;
6209;SDS011;3138;52.550;13.148;2023-04-16T12:24:43;17.57;;;13.20;;
6209;SDS011;3138;52.550;13.148;2023-04-16T12:27:09;17.77;;;13.77;;
6209;SDS011;3138;52.550;13.148;2023-04-16T12:29:37;18.10;;;13.70;;
6209;SDS011;3138;52.550;13.148;2023-04-16T12:32:03;18.23;;;14.77;;
6209;SDS011;3138;52.550;13.148;2023-04-16T12:34:48;18.30;;;13.57;;
6209;SDS011;3138;52.550;13.148;2023-04-16T12:37:16;18.43;;;14.20;;
6209;SDS011;3138;52.550;13.148;2023-04-16T12:39:44;19.43;;;14.90;;
6209;SDS011;3138;52.550;13.148;2023-04-16T12:42:11;22.90;;;15.80;;
6209;SDS011;3138;52.550;13.148;2023-04-16T12:44:38;21.03;;;15.40;;
6209;SDS011;3138;52.550;13.148;2023-04-16T12:47:05;25.80;;;16.83;;
6209;SDS011;3138;52.550;13.148;2023-04-16T12:49:32;20.70;;;14.13;;
6209;SDS011;3138;52.550;13.148;2023-04-16T12:52:00;21.33;;;14.93;;
6209;SDS011;3138;52.550;13.148;2023-04-16T12:54:27;36.73;;;15.90;;
6209;SDS011;3138;52.550;13.148;2023-04-16T12:56:56;23.90;;;17.93;;
6209;SDS011;3138;52.550;13.148;2023-04-16T12:59:23;23.30;;;15.77;;
6209;SDS011;3138;52.550;13.148;2023-04-16T13:01:50;22.93;;;15.37;;
6209;SDS011;3138;52.550;13.148;2023-04-16T13:04:17;25.87;;;15.77;;
6209;SDS011;3138;52.550;13.148;2023-04-16T13:06:44;21.90;;;15.63;;
6209;SDS011;3138;52.550;13.148;2023-04-16T13:09:11;28.00;;;16.30;;
6209;SDS011;3138;52.550;13.148;2023-04-16T13:11:38;24.57;;;16.10;;
6209;SDS011;3138;52.550;13.148;2023-04-16T13:14:06;18.07;;;13.90;;
6209;SDS011;3138;52.550;13.148;2023-04-16T13:16:33;31.83;;;16.03;;
6209;SDS011;3138;52.550;13.148;2023-04-16T13:18:59;23.30;;;15.97;;
6209;SDS011;3138;52.550;13.148;2023-04-16T13:21:26;24.97;;;15.10;;
6209;SDS011;3138;52.550;13.148;2023-04-16T13:23:53;28.70;;;14.37;;
6209;SDS011;3138;52.550;13.148;2023-04-16T13:26:20;16.40;;;13.13;;
6209;SDS011;3138;52.550;13.148;2023-04-16T13:28:47;18.77;;;12.97;;
6209;SDS011;3138;52.550;13.148;2023-04-16T13:31:15;15.20;;;11.23;;
6209;SDS011;3138;52.550;13.148;2023-04-16T13:33:44;42.20;;;13.10;;
6209;SDS011;3138;52.550;13.148;2023-04-16T13:36:11;18.07;;;12.10;;
6209;SDS011;3138;52.550;13.148;2023-04-16T13:38:38;16.23;;;11.83;;
6209;SDS011;3138;52.550;13.148;2023-04-16T13:41:06;18.00;;;11.77;;
6209;SDS011;3138;52.550;13.148;2023-04-16T13:43:33;16.90;;;11.50;;
6209;SDS011;3138;52.550;13.148;2023-04-16T13:45:59;15.50;;;10.90;;
6209;SDS011;3138;52.550;13.148;2023-04-16T13:48:28;18.43;;;11.10;;
6209;SDS011;3138;52.550;13.148;2023-04-16T13:50:54;23.10;;;12.50;;
6209;SDS011;3138;52.550;13.148;2023-04-16T13:53:21;18.17;;;12.70;;
6209;SDS011;3138;52.550;13.148;2023-04-16T13:55:48;20.10;;;12.67;;
6209;SDS011;3138;52.550;13.148;2023-04-16T13:58:15;21.80;;;12.73;;
6209;SDS011;3138;52.550;13.148;2023-04-16T14:00:42;18.10;;;10.93;;
6209;SDS011;3138;52.550;13.148;2023-04-16T14:03:09;21.97;;;10.97;;
6209;SDS011;3138;52.550;13.148;2023-04-16T14:05:37;14.43;;;10.50;;
6209;SDS011;3138;52.550;13.148;2023-04-16T14:08:05;13.97;;;10.37;;
6209;SDS011;3138;52.550;13.148;2023-04-16T14:10:32;11.30;;;8.30;;
6209;SDS011;3138;52.550;13.148;2023-04-16T14:12:59;9.30;;;7.50;;
6209;SDS011;3138;52.550;13.148;2023-04-16T14:15:25;12.13;;;9.40;;
6209;SDS011;3138;52.550;13.148;2023-04-16T14:17:53;9.50;;;8.23;;
6209;SDS011;3138;52.550;13.148;2023-04-16T14:20:22;12.50;;;9.00;;
6209;SDS011;3138;52.550;13.148;2023-04-16T14:22:50;11.43;;;7.47;;
6209;SDS011;3138;52.550;13.148;2023-04-16T14:25:17;8.33;;;7.40;;
6209;SDS011;3138;52.550;13.148;2023-04-16T14:27:44;8.67;;;7.87;;
6209;SDS011;3138;52.550;13.148;2023-04-16T14:30:11;10.47;;;8.77;;
6209;SDS011;3138;52.550;13.148;2023-04-16T14:32:38;13.13;;;9.40;;
6209;SDS011;3138;52.550;13.148;2023-04-16T14:35:05;30.77;;;9.53;;
6209;SDS011;3138;52.550;13.148;2023-04-16T14:37:32;14.57;;;9.47;;
6209;SDS011;3138;52.550;13.148;2023-04-16T14:40:02;19.70;;;14.33;;
6209;SDS011;3138;52.550;13.148;2023-04-16T14:42:32;15.80;;;10.70;;